Terminal Aerodrome Forecast
Issued by NWS

Home | Current Version | Previous Version | Text Only | Print | Product List | Glossary On
Versions: 1 2 3 4 5 6 7 8 9 10 11 12 13 14 15 16 17 18 19
000
FTUS46 KLOX 232300 RRA
TAFVNY
TAF
KVNY 232350Z 2400/2424 15008KT P6SM BKN200
     FM240200 34006KT P6SM SCT200
     FM240600 VRB03KT P6SM SCT200
     FM241400 36005KT P6SM SCT200
     FM241800 02008KT P6SM SCT200
     FM242100 14008KT P6SM SCT200=

USA.gov is the U.S. government's official web portal to all federal, state and local government web resources and services.